createdAt,value
2017-09-18T00:01:07.863Z,1.10
2017-09-18T00:03:35.311Z,1.50
2017-09-18T00:06:02.764Z,1.00
2017-09-18T00:08:30.216Z,0.93
2017-09-18T00:10:57.668Z,2.97
2017-09-18T00:13:25.114Z,1.33
2017-09-18T00:15:52.546Z,1.30
2017-09-18T00:18:20.759Z,1.37
2017-09-18T00:20:48.214Z,1.07
2017-09-18T00:23:15.671Z,1.30
2017-09-18T00:25:43.123Z,1.23
2017-09-18T00:28:10.560Z,1.13
2017-09-18T00:30:38.771Z,1.23
2017-09-18T00:33:06.216Z,1.20
2017-09-18T00:35:34.475Z,1.20
2017-09-18T00:38:01.925Z,1.23
2017-09-18T00:40:29.367Z,1.40
2017-09-18T00:42:57.594Z,1.20
2017-09-18T00:45:25.036Z,1.47
2017-09-18T00:47:52.501Z,1.00
2017-09-18T00:50:19.944Z,1.00
2017-09-18T00:52:47.388Z,1.23
2017-09-18T00:55:14.845Z,1.20
2017-09-18T00:57:42.287Z,1.57
2017-09-18T01:00:10.500Z,1.90
2017-09-18T01:02:37.942Z,2.23
2017-09-18T01:05:05.395Z,1.93
2017-09-18T01:07:32.864Z,1.40
2017-09-18T01:10:00.283Z,1.50
2017-09-18T01:12:28.496Z,1.90
2017-09-18T01:14:55.940Z,1.00
2017-09-18T01:17:23.392Z,2.77
2017-09-18T01:19:50.835Z,1.10
2017-09-18T01:22:18.275Z,1.17
2017-09-18T01:24:46.492Z,1.10
2017-09-18T01:27:13.935Z,2.50
2017-09-18T01:29:41.391Z,2.23
2017-09-18T01:32:08.860Z,1.07
2017-09-18T01:34:36.307Z,1.20
2017-09-18T01:37:03.759Z,1.27
2017-09-18T01:39:31.222Z,1.40
2017-09-18T01:41:58.674Z,1.63
2017-09-18T01:44:26.129Z,1.47
2017-09-18T01:46:53.588Z,1.07
2017-09-18T01:49:21.043Z,1.20
2017-09-18T01:51:48.483Z,1.40
2017-09-18T01:54:15.928Z,1.10
2017-09-18T01:56:44.147Z,1.00
2017-09-18T01:59:11.604Z,1.37
2017-09-18T02:01:39.052Z,1.27
2017-09-18T02:04:06.495Z,1.03
2017-09-18T02:06:33.951Z,1.10
2017-09-18T02:09:01.407Z,1.03
2017-09-18T02:11:28.863Z,0.80
2017-09-18T02:13:56.317Z,0.90
2017-09-18T02:16:23.776Z,1.10
2017-09-18T02:18:51.299Z,1.00
2017-09-18T02:21:18.755Z,1.30
2017-09-18T02:23:46.967Z,1.40
2017-09-18T02:26:14.419Z,1.53
2017-09-18T02:28:41.874Z,1.37
2017-09-18T02:31:09.331Z,1.50
2017-09-18T02:33:36.776Z,1.43
2017-09-18T02:36:04.219Z,1.00
2017-09-18T02:38:32.439Z,0.97
2017-09-18T02:40:59.889Z,1.13
2017-09-18T02:43:27.331Z,1.30
2017-09-18T02:45:54.788Z,0.73
2017-09-18T02:48:22.244Z,1.27
2017-09-18T02:50:49.703Z,1.07
2017-09-18T02:53:17.153Z,0.97
2017-09-18T02:55:44.596Z,0.93
2017-09-18T02:58:12.036Z,0.80
2017-09-18T03:00:40.263Z,0.63
2017-09-18T03:03:07.720Z,0.70
2017-09-18T03:05:35.171Z,0.60
2017-09-18T03:08:02.618Z,0.77
2017-09-18T03:10:30.067Z,0.50
2017-09-18T03:12:57.520Z,0.50
2017-09-18T03:15:24.978Z,0.70
2017-09-18T03:17:52.435Z,0.63
2017-09-18T03:20:19.890Z,0.60
2017-09-18T03:22:47.348Z,0.60
2017-09-18T03:25:14.787Z,0.40
2017-09-18T03:27:42.235Z,0.60
2017-09-18T03:30:09.682Z,0.40
2017-09-18T03:32:37.902Z,0.93
2017-09-18T03:35:05.344Z,0.73
2017-09-18T03:37:32.802Z,1.43
2017-09-18T03:40:00.249Z,0.53
2017-09-18T03:42:27.691Z,0.40
2017-09-18T03:44:55.131Z,0.73
2017-09-18T03:47:23.342Z,0.70
2017-09-18T03:49:50.796Z,1.33
2017-09-18T03:52:18.255Z,1.80
2017-09-18T03:54:45.703Z,0.70
2017-09-18T03:57:13.147Z,0.93
2017-09-18T03:59:40.583Z,0.70
2017-09-18T04:02:08.795Z,0.70
2017-09-18T04:04:36.249Z,1.37
2017-09-18T04:07:03.708Z,1.63
2017-09-18T04:09:31.157Z,0.80
2017-09-18T04:11:58.614Z,0.50
2017-09-18T04:14:26.337Z,0.70
2017-09-18T04:16:53.775Z,0.60
2017-09-18T04:19:21.227Z,0.60
2017-09-18T04:21:48.671Z,0.70
2017-09-18T04:24:16.117Z,2.43
2017-09-18T04:26:43.559Z,0.70
2017-09-18T04:29:11.019Z,1.03
2017-09-18T04:31:38.475Z,0.80
2017-09-18T04:34:05.923Z,0.80
2017-09-18T04:36:33.387Z,0.97
2017-09-18T04:39:00.842Z,1.10
2017-09-18T04:41:28.298Z,2.43
2017-09-18T04:43:55.754Z,1.20
2017-09-18T04:46:23.209Z,1.20
2017-09-18T04:48:50.672Z,1.30
2017-09-18T04:51:18.111Z,1.07
2017-09-18T04:53:45.570Z,0.93
2017-09-18T04:56:13.004Z,1.20
2017-09-18T04:58:41.223Z,0.90
2017-09-18T05:01:08.662Z,1.10
2017-09-18T05:03:36.141Z,0.90
2017-09-18T05:06:03.579Z,1.10
2017-09-18T05:08:31.036Z,0.90
2017-09-18T05:10:58.489Z,1.00
2017-09-18T05:13:25.936Z,1.17
2017-09-18T05:15:53.395Z,1.27
2017-09-18T05:18:21.882Z,1.40
2017-09-18T05:20:49.497Z,1.27
2017-09-18T05:23:17.739Z,1.53
2017-09-18T05:25:45.204Z,2.03
2017-09-18T05:28:12.644Z,1.40
2017-09-18T05:30:40.095Z,1.73
2017-09-18T05:33:07.542Z,1.60
2017-09-18T05:35:34.999Z,1.60
2017-09-18T05:38:02.451Z,1.10
2017-09-18T05:40:29.913Z,1.23
2017-09-18T05:42:57.362Z,1.40
2017-09-18T05:45:26.735Z,2.30
2017-09-18T05:47:54.955Z,1.90
2017-09-18T05:50:22.408Z,1.60
2017-09-18T05:52:49.854Z,2.67
2017-09-18T05:55:17.320Z,2.40
2017-09-18T05:57:44.763Z,3.13
2017-09-18T06:00:12.215Z,2.30
2017-09-18T06:02:39.670Z,2.80
2017-09-18T06:05:07.103Z,2.80
2017-09-18T06:07:34.543Z,2.70
2017-09-18T06:10:02.000Z,2.93
2017-09-18T06:12:30.219Z,2.70
2017-09-18T06:14:57.677Z,2.20
2017-09-18T06:17:25.136Z,2.70
2017-09-18T06:19:52.588Z,1.80
2017-09-18T06:22:20.044Z,2.13
2017-09-18T06:24:47.507Z,1.70
2017-09-18T06:27:14.955Z,1.97
2017-09-18T06:29:42.413Z,1.50
2017-09-18T06:32:09.871Z,2.07
2017-09-18T06:34:37.326Z,1.77
2017-09-18T06:37:04.803Z,2.33
2017-09-18T06:39:32.258Z,2.97
2017-09-18T06:41:59.712Z,2.83
2017-09-18T06:44:27.172Z,2.23
2017-09-18T06:46:54.626Z,2.10
2017-09-18T06:49:22.083Z,1.87
2017-09-18T06:51:49.537Z,2.20
2017-09-18T06:54:17.763Z,1.83
2017-09-18T06:56:45.989Z,1.70
2017-09-18T06:59:13.441Z,1.67
2017-09-18T07:01:40.882Z,2.13
2017-09-18T07:04:08.341Z,2.23
2017-09-18T07:06:35.787Z,2.10
2017-09-18T07:09:03.250Z,2.07
2017-09-18T07:11:30.703Z,1.80
2017-09-18T07:13:58.159Z,1.77
2017-09-18T07:16:25.604Z,2.77
2017-09-18T07:18:53.051Z,1.70
2017-09-18T07:21:20.495Z,0.93
2017-09-18T07:23:48.738Z,2.10
2017-09-18T07:26:16.184Z,1.40
2017-09-18T07:28:44.392Z,1.20
2017-09-18T07:31:12.607Z,1.10
2017-09-18T07:33:40.062Z,1.23
2017-09-18T07:36:07.519Z,0.93
2017-09-18T07:38:34.955Z,0.90
2017-09-18T07:41:02.411Z,1.00
2017-09-18T07:43:29.861Z,1.23
2017-09-18T07:45:58.075Z,1.30
2017-09-18T07:48:25.515Z,2.10
2017-09-18T07:50:52.971Z,1.30
2017-09-18T07:53:20.432Z,2.03
2017-09-18T07:55:47.884Z,1.37
2017-09-18T07:58:15.322Z,1.60
2017-09-18T08:00:42.779Z,1.77
2017-09-18T08:03:10.218Z,2.70
2017-09-18T08:05:38.427Z,1.53
2017-09-18T08:08:05.867Z,1.67
2017-09-18T08:10:33.315Z,1.97
2017-09-18T08:13:00.760Z,1.60
2017-09-18T08:15:28.996Z,1.53
2017-09-18T08:17:56.439Z,2.30
2017-09-18T08:20:23.882Z,1.10
2017-09-18T08:22:51.335Z,1.30
2017-09-18T08:25:18.779Z,1.00
2017-09-18T08:27:46.231Z,1.57
2017-09-18T08:30:13.946Z,1.10
2017-09-18T08:32:41.391Z,1.63
2017-09-18T08:35:08.836Z,1.23
2017-09-18T08:37:36.280Z,0.90
2017-09-18T08:40:03.739Z,0.67
2017-09-18T08:42:31.191Z,2.00
2017-09-18T08:44:58.640Z,1.20
2017-09-18T08:47:26.075Z,0.80
2017-09-18T08:49:54.275Z,0.67
2017-09-18T08:52:21.731Z,0.63
2017-09-18T08:54:49.171Z,1.00
2017-09-18T08:57:16.620Z,1.20
2017-09-18T08:59:44.839Z,2.00
2017-09-18T09:02:12.286Z,2.40
2017-09-18T09:04:39.764Z,2.10
2017-09-18T09:07:07.211Z,1.97
2017-09-18T09:09:34.652Z,1.57
2017-09-18T09:12:02.111Z,1.03
2017-09-18T09:14:29.560Z,1.30
2017-09-18T09:16:57.013Z,2.40
2017-09-18T09:19:24.468Z,0.70
2017-09-18T09:21:51.899Z,1.37
2017-09-18T09:24:19.348Z,1.00
2017-09-18T09:26:47.559Z,1.80
2017-09-18T09:29:15.009Z,1.07
2017-09-18T09:31:42.451Z,1.30
2017-09-18T09:34:09.900Z,1.23
2017-09-18T09:36:37.343Z,1.30
2017-09-18T09:39:05.555Z,1.00
2017-09-18T09:41:33.004Z,1.10
2017-09-18T09:44:00.463Z,1.30
2017-09-18T09:46:27.903Z,1.70
2017-09-18T09:48:55.358Z,2.10
2017-09-18T09:51:23.378Z,1.50
2017-09-18T09:53:51.621Z,1.97
2017-09-18T09:56:19.067Z,1.77
2017-09-18T09:58:46.544Z,4.10
2017-09-18T10:01:13.989Z,1.40
2017-09-18T10:03:41.435Z,1.40
2017-09-18T10:06:08.884Z,3.70
2017-09-18T10:08:36.326Z,1.23
2017-09-18T10:11:04.538Z,1.50
2017-09-18T10:13:31.995Z,1.93
2017-09-18T10:15:59.451Z,1.20
2017-09-18T10:18:26.883Z,1.10
2017-09-18T10:20:54.331Z,1.50
2017-09-18T10:23:21.781Z,1.93
2017-09-18T10:25:49.239Z,1.53
2017-09-18T10:28:16.689Z,1.20
2017-09-18T10:30:44.900Z,1.90
2017-09-18T10:33:13.520Z,1.40
2017-09-18T10:35:40.972Z,1.13
2017-09-18T10:38:08.427Z,1.27
2017-09-18T10:40:35.884Z,1.73
2017-09-18T10:43:03.363Z,1.27
2017-09-18T10:45:31.677Z,3.63
2017-09-18T10:47:59.152Z,1.50
2017-09-18T10:50:26.629Z,1.03
2017-09-18T10:52:54.109Z,3.53
2017-09-18T10:55:22.348Z,3.30
2017-09-18T10:57:49.825Z,1.60
2017-09-18T11:00:17.271Z,1.70
2017-09-18T11:02:44.731Z,1.40
2017-09-18T11:05:12.176Z,1.37
2017-09-18T11:07:39.627Z,1.40
2017-09-18T11:10:07.072Z,2.20
2017-09-18T11:12:34.531Z,1.40
2017-09-18T11:15:01.984Z,3.80
2017-09-18T11:17:29.461Z,2.03
2017-09-18T11:19:56.883Z,2.13
2017-09-18T11:22:24.340Z,1.70
2017-09-18T11:24:51.792Z,2.23
2017-09-18T11:27:19.327Z,1.50
2017-09-18T11:29:47.545Z,1.77
2017-09-18T11:32:15.001Z,1.23
2017-09-18T11:34:42.445Z,1.77
2017-09-18T11:37:09.898Z,5.20
2017-09-18T11:39:37.346Z,1.40
2017-09-18T11:42:04.811Z,1.87
2017-09-18T11:44:32.264Z,2.60
2017-09-18T11:46:59.719Z,1.40
2017-09-18T11:49:27.164Z,3.73
2017-09-18T11:51:54.636Z,5.60
2017-09-18T11:54:22.076Z,1.70
2017-09-18T11:56:49.519Z,1.33
2017-09-18T11:59:17.741Z,2.27
2017-09-18T12:01:45.195Z,1.33
2017-09-18T12:04:12.632Z,1.10
2017-09-18T12:06:40.075Z,1.40
2017-09-18T12:09:07.524Z,2.93
2017-09-18T12:11:34.975Z,1.40
2017-09-18T12:14:03.192Z,1.07
2017-09-18T12:16:30.655Z,1.00
2017-09-18T12:18:58.112Z,0.80
2017-09-18T12:21:25.566Z,1.73
2017-09-18T12:23:53.031Z,0.90
2017-09-18T12:26:20.476Z,1.17
2017-09-18T12:28:47.932Z,1.73
2017-09-18T12:31:15.396Z,1.30
2017-09-18T12:33:42.834Z,1.40
2017-09-18T12:36:10.279Z,1.13
2017-09-18T12:38:37.719Z,0.87
2017-09-18T12:41:05.163Z,2.07
2017-09-18T12:43:33.381Z,1.47
2017-09-18T12:46:00.824Z,1.43
2017-09-18T12:48:28.279Z,3.63
2017-09-18T12:50:55.717Z,2.80
2017-09-18T12:53:23.166Z,1.90
2017-09-18T12:55:51.374Z,4.10
2017-09-18T12:58:18.845Z,5.13
2017-09-18T13:00:46.305Z,1.20
2017-09-18T13:03:13.774Z,1.37
2017-09-18T13:05:41.219Z,2.07
2017-09-18T13:08:08.659Z,2.07
2017-09-18T13:10:36.123Z,1.87
2017-09-18T13:13:03.579Z,1.20
2017-09-18T13:15:31.026Z,1.20
2017-09-18T13:17:58.478Z,1.20
2017-09-18T13:20:26.044Z,1.20
2017-09-18T13:22:53.484Z,1.73
2017-09-18T13:25:20.937Z,3.03
2017-09-18T13:27:48.381Z,1.30
2017-09-18T13:30:15.828Z,2.97
2017-09-18T13:32:44.028Z,1.40
2017-09-18T13:35:11.519Z,3.17
2017-09-18T13:37:38.963Z,2.17
2017-09-18T13:40:06.414Z,1.53
2017-09-18T13:42:33.851Z,1.17
2017-09-18T13:45:01.307Z,1.57
2017-09-18T13:47:29.287Z,1.60
2017-09-18T13:49:56.733Z,2.17
2017-09-18T13:52:24.561Z,1.87
2017-09-18T13:54:56.817Z,2.37
2017-09-18T13:57:47.662Z,1.53
2017-09-18T14:12:07.932Z,0.50
2017-09-18T14:14:37.251Z,0.40
2017-09-18T14:17:05.097Z,0.67
2017-09-18T14:19:33.321Z,0.50
2017-09-18T14:22:00.776Z,1.00
2017-09-18T14:24:28.228Z,0.50
2017-09-18T14:26:56.550Z,1.73
2017-09-18T14:29:25.893Z,1.40
2017-09-18T14:31:53.356Z,0.73
2017-09-18T14:34:22.040Z,1.87
2017-09-18T14:36:49.536Z,6.37
2017-09-18T14:39:16.995Z,1.00
2017-09-18T14:41:44.445Z,2.20
2017-09-18T14:44:23.412Z,2.20
2017-09-18T14:47:23.269Z,1.40
2017-09-18T14:49:50.948Z,1.50
2017-09-18T14:52:18.875Z,2.67
2017-09-18T14:54:46.352Z,1.97
2017-09-18T14:57:13.804Z,2.00
2017-09-18T14:59:41.243Z,1.17
2017-09-18T15:02:09.536Z,0.70
2017-09-18T15:04:37.003Z,2.00
2017-09-18T15:07:05.216Z,2.47
2017-09-18T15:09:32.656Z,1.60
2017-09-18T15:12:00.140Z,1.70
2017-09-18T15:14:27.583Z,1.20
2017-09-18T15:16:55.039Z,0.93
2017-09-18T15:19:23.263Z,0.97
2017-09-18T15:21:50.707Z,2.90
2017-09-18T15:24:18.170Z,0.70
2017-09-18T15:26:45.640Z,1.53
2017-09-18T15:29:13.093Z,1.20
2017-09-18T15:31:41.209Z,1.50
2017-09-18T15:34:08.684Z,1.10
2017-09-18T15:36:36.139Z,1.20
2017-09-18T15:39:04.039Z,1.43
2017-09-18T15:41:31.514Z,1.13
2017-09-18T15:43:59.733Z,1.03
2017-09-18T15:46:27.192Z,2.00
2017-09-18T15:48:54.631Z,1.47
2017-09-18T15:51:22.095Z,0.93
2017-09-18T15:53:49.543Z,0.90
2017-09-18T15:56:17.001Z,3.40
2017-09-18T15:58:44.459Z,1.93
2017-09-18T16:01:11.912Z,1.43
2017-09-18T16:03:39.387Z,1.23
2017-09-18T16:06:06.831Z,4.40
2017-09-18T16:08:34.284Z,7.30
2017-09-18T16:11:01.756Z,7.20
2017-09-18T16:13:29.199Z,5.20
2017-09-18T16:15:56.655Z,4.00
2017-09-18T16:18:24.115Z,4.60
2017-09-18T16:20:51.568Z,2.73
2017-09-18T16:23:19.007Z,1.90
2017-09-18T16:25:46.488Z,1.73
2017-09-18T16:28:13.935Z,1.60
2017-09-18T16:30:41.392Z,1.57
2017-09-18T16:33:08.844Z,2.40
2017-09-18T16:35:36.300Z,3.40
2017-09-18T16:38:03.761Z,4.40
2017-09-18T16:40:31.215Z,4.53
2017-09-18T16:42:58.674Z,3.30
2017-09-18T16:45:26.111Z,3.47
2017-09-18T16:47:53.569Z,2.33
2017-09-18T16:50:21.007Z,4.47
2017-09-18T16:52:50.056Z,2.13
2017-09-18T16:55:17.504Z,1.13
2017-09-18T16:57:45.356Z,1.03
2017-09-18T17:00:12.823Z,1.10
2017-09-18T17:02:40.265Z,1.10
2017-09-18T17:05:07.708Z,1.37
2017-09-18T17:07:35.441Z,1.40
2017-09-18T17:10:02.915Z,1.40
2017-09-18T17:12:31.132Z,5.73
2017-09-18T17:14:58.572Z,10.90
2017-09-18T17:17:26.125Z,1.50
2017-09-18T17:19:53.813Z,3.10
2017-09-18T17:22:21.260Z,2.13
2017-09-18T17:24:48.708Z,2.17
2017-09-18T17:27:16.172Z,2.10
2017-09-18T17:29:43.612Z,1.83
2017-09-18T17:32:11.784Z,1.40
2017-09-18T17:34:39.240Z,1.67
2017-09-18T17:37:06.690Z,1.80
2017-09-18T17:39:34.168Z,2.03
2017-09-18T17:42:01.660Z,2.07
2017-09-18T17:44:29.115Z,2.27
2017-09-18T17:46:56.551Z,1.87
2017-09-18T17:49:24.026Z,1.63
2017-09-18T17:51:51.491Z,1.93
2017-09-18T17:54:19.743Z,3.40
2017-09-18T17:56:47.191Z,2.30
2017-09-18T17:59:14.650Z,1.90
2017-09-18T18:01:42.097Z,3.90
2017-09-18T18:04:09.553Z,3.90
2017-09-18T18:06:37.028Z,4.53
2017-09-18T18:09:04.484Z,3.73
2017-09-18T18:11:31.956Z,2.37
2017-09-18T18:13:59.418Z,2.47
2017-09-18T18:16:26.869Z,2.20
2017-09-18T18:18:54.316Z,1.90
2017-09-18T18:21:21.781Z,1.70
2017-09-18T18:23:49.236Z,1.83
2017-09-18T18:26:16.686Z,1.23
2017-09-18T18:28:44.163Z,2.00
2017-09-18T18:31:12.429Z,2.10
2017-09-18T18:33:40.660Z,2.00
2017-09-18T18:36:08.115Z,2.43
2017-09-18T18:38:35.564Z,4.37
2017-09-18T18:41:03.060Z,2.93
2017-09-18T18:43:30.546Z,2.00
2017-09-18T18:45:57.996Z,1.93
2017-09-18T18:48:26.237Z,1.70
2017-09-18T18:50:53.702Z,1.90
2017-09-18T18:53:21.168Z,1.90
2017-09-18T18:55:54.452Z,1.50
2017-09-18T18:58:21.905Z,1.37
2017-09-18T19:00:49.900Z,1.10
2017-09-18T19:03:18.116Z,1.43
2017-09-18T19:05:45.566Z,1.40
2017-09-18T19:08:13.529Z,1.37
2017-09-18T19:10:41.044Z,1.70
2017-09-18T19:13:08.500Z,2.20
2017-09-18T19:15:35.961Z,2.17
2017-09-18T19:18:03.400Z,2.20
2017-09-18T19:20:30.899Z,2.50
2017-09-18T19:22:58.348Z,1.30
2017-09-18T19:25:25.834Z,1.20
2017-09-18T19:27:53.294Z,0.90
2017-09-18T19:30:20.760Z,1.50
2017-09-18T19:32:48.231Z,1.20
2017-09-18T19:35:15.697Z,1.33
2017-09-18T19:37:43.225Z,1.00
2017-09-18T19:40:10.734Z,1.00
2017-09-18T19:42:38.236Z,2.07
2017-09-18T19:45:05.757Z,2.90
2017-09-18T19:47:33.993Z,3.40
2017-09-18T19:50:01.441Z,3.10
2017-09-18T19:52:28.940Z,3.23
2017-09-18T19:54:57.174Z,2.60
2017-09-18T19:57:24.638Z,2.20
2017-09-18T19:59:52.167Z,2.40
2017-09-18T20:02:19.663Z,2.00
2017-09-18T20:04:47.127Z,2.50
2017-09-18T20:07:14.570Z,2.53
2017-09-18T20:09:42.062Z,2.40
2017-09-18T20:12:10.544Z,3.40
2017-09-18T20:14:38.817Z,3.93
2017-09-18T20:17:06.326Z,4.10
2017-09-18T20:19:33.813Z,2.67
2017-09-18T20:22:01.257Z,3.63
2017-09-18T20:24:28.710Z,1.80
2017-09-18T20:26:56.164Z,1.83
2017-09-18T20:29:23.604Z,3.87
2017-09-18T20:31:51.083Z,3.93
2017-09-18T20:34:18.537Z,3.60
2017-09-18T20:36:46.007Z,3.67
2017-09-18T20:39:13.468Z,5.63
2017-09-18T20:41:42.139Z,7.23
2017-09-18T20:44:10.385Z,5.50
2017-09-18T20:46:37.840Z,4.23
2017-09-18T20:49:05.309Z,4.90
2017-09-18T20:51:32.755Z,3.30
2017-09-18T20:54:00.216Z,1.87
2017-09-18T20:56:27.672Z,1.60
2017-09-18T20:58:55.376Z,1.40
2017-09-18T21:01:23.584Z,1.47
2017-09-18T21:03:51.109Z,2.20
2017-09-18T21:06:19.321Z,1.60
2017-09-18T21:08:46.984Z,1.80
2017-09-18T21:11:15.052Z,1.53
2017-09-18T21:13:42.520Z,1.93
2017-09-18T21:16:09.977Z,1.90
2017-09-18T21:18:37.431Z,2.10
2017-09-18T21:21:04.883Z,2.33
2017-09-18T21:23:32.329Z,1.90
2017-09-18T21:25:59.788Z,2.40
2017-09-18T21:28:27.248Z,2.27
2017-09-18T21:30:54.711Z,3.30
2017-09-18T21:33:22.178Z,2.27
2017-09-18T21:35:49.634Z,5.47
2017-09-18T21:38:17.083Z,2.37
2017-09-18T21:40:44.541Z,2.37
2017-09-18T21:43:11.992Z,2.30
2017-09-18T21:45:41.193Z,2.70
2017-09-18T21:48:09.188Z,2.30
2017-09-18T21:50:36.701Z,3.53
2017-09-18T21:53:04.145Z,2.83
2017-09-18T21:55:31.614Z,4.63
2017-09-18T21:57:59.060Z,2.60
2017-09-18T22:00:26.527Z,3.00
2017-09-18T22:02:54.568Z,2.50
2017-09-18T22:05:23.204Z,3.60
2017-09-18T22:07:50.660Z,2.57
2017-09-18T22:10:18.107Z,2.57
2017-09-18T22:12:46.526Z,2.30
2017-09-18T22:15:14.760Z,1.40
2017-09-18T22:17:42.316Z,1.90
2017-09-18T22:20:09.773Z,2.53
2017-09-18T22:22:37.998Z,2.20
2017-09-18T22:25:06.224Z,1.90
2017-09-18T22:27:33.683Z,3.17
2017-09-18T22:30:01.136Z,2.70
2017-09-18T22:32:28.603Z,3.77
2017-09-18T22:34:57.305Z,3.20
2017-09-18T22:37:25.513Z,2.97
2017-09-18T22:39:53.736Z,4.47
2017-09-18T22:42:21.768Z,2.60
2017-09-18T22:44:49.221Z,3.57
2017-09-18T22:47:16.675Z,6.00
2017-09-18T22:49:45.231Z,3.00
2017-09-18T22:52:12.704Z,3.00
2017-09-18T22:54:40.188Z,4.90
2017-09-18T22:57:08.448Z,3.70
2017-09-18T22:59:35.937Z,3.00
2017-09-18T23:02:04.033Z,2.93
2017-09-18T23:04:31.485Z,4.87
2017-09-18T23:06:58.946Z,2.87
2017-09-18T23:09:26.407Z,2.83
2017-09-18T23:11:53.852Z,2.90
2017-09-18T23:14:21.309Z,3.83
2017-09-18T23:16:48.772Z,3.30
2017-09-18T23:19:16.236Z,3.60
2017-09-18T23:21:43.682Z,4.70
2017-09-18T23:24:11.135Z,4.33
2017-09-18T23:26:38.600Z,4.07
2017-09-18T23:29:06.052Z,3.80
2017-09-18T23:31:33.500Z,3.70
2017-09-18T23:34:00.968Z,4.10
2017-09-18T23:36:28.416Z,3.70
2017-09-18T23:38:55.877Z,3.90
2017-09-18T23:41:23.331Z,3.37
2017-09-18T23:43:50.788Z,3.30
2017-09-18T23:46:18.240Z,3.13
2017-09-18T23:48:45.700Z,2.80
2017-09-18T23:51:13.151Z,3.27
2017-09-18T23:53:40.632Z,2.50
2017-09-18T23:56:08.857Z,2.63
2017-09-18T23:58:36.321Z,3.13
